createdAt,value
2015-05-10T00:00:11.587Z,101180
2015-05-10T00:00:29.837Z,101183
2015-05-10T00:00:48.087Z,101180
2015-05-10T00:01:06.339Z,101192
2015-05-10T00:01:24.589Z,101186
2015-05-10T00:01:42.839Z,101186
2015-05-10T00:02:01.089Z,101180
2015-05-10T00:02:19.340Z,101183
2015-05-10T00:02:37.590Z,101177
2015-05-10T00:02:55.840Z,101180
2015-05-10T00:03:14.101Z,101183
2015-05-10T00:03:32.351Z,101192
2015-05-10T00:03:50.601Z,101177
2015-05-10T00:04:08.859Z,101172
2015-05-10T00:04:27.109Z,101172
2015-05-10T00:04:45.344Z,101177
2015-05-10T00:05:03.594Z,101186
2015-05-10T00:05:21.852Z,101189
2015-05-10T00:05:40.102Z,101180
2015-05-10T00:05:58.336Z,101183
2015-05-10T00:06:16.594Z,101177
2015-05-10T00:06:34.844Z,101180
2015-05-10T00:06:53.094Z,101183
2015-05-10T00:07:11.351Z,101177
2015-05-10T00:07:29.601Z,101186
2015-05-10T00:07:47.835Z,101189
2015-05-10T00:08:06.085Z,101186
2015-05-10T00:08:24.341Z,101189
2015-05-10T00:08:42.576Z,101189
2015-05-10T00:09:00.826Z,101195
2015-05-10T00:09:19.080Z,101186
2015-05-10T00:09:37.330Z,101186
2015-05-10T00:09:55.580Z,101183
2015-05-10T00:10:13.830Z,101180
2015-05-10T00:10:32.069Z,101195
2015-05-10T00:10:50.319Z,101177
2015-05-10T00:11:08.569Z,101183
2015-05-10T00:11:26.823Z,101192
2015-05-10T00:11:45.073Z,101189
2015-05-10T00:12:03.323Z,101192
2015-05-10T00:12:21.573Z,101197
2015-05-10T00:12:39.811Z,101192
2015-05-10T00:12:58.061Z,101189
2015-05-10T00:13:16.311Z,101183
2015-05-10T00:13:34.565Z,101189
2015-05-10T00:13:52.815Z,101192
2015-05-10T00:14:11.065Z,101192
2015-05-10T00:14:29.318Z,101192
2015-05-10T00:14:47.553Z,101189
2015-05-10T00:15:05.803Z,101195
2015-05-10T00:15:24.053Z,101189
2015-05-10T00:15:42.306Z,101189
2015-05-10T00:16:00.556Z,101189
2015-05-10T00:16:18.790Z,101180
2015-05-10T00:16:37.043Z,101197
2015-05-10T00:16:55.293Z,101195
2015-05-10T00:17:13.543Z,101189
2015-05-10T00:17:31.796Z,101189
2015-05-10T00:17:50.046Z,101195
2015-05-10T00:18:08.296Z,101189
2015-05-10T00:18:26.531Z,101186
2015-05-10T00:18:44.784Z,101189
2015-05-10T00:19:03.034Z,101195
2015-05-10T00:19:21.284Z,101200
2015-05-10T00:19:39.537Z,101194
2015-05-10T00:19:57.771Z,101194
2015-05-10T00:20:16.021Z,101180
2015-05-10T00:20:34.273Z,101203
2015-05-10T00:20:52.523Z,101192
2015-05-10T00:21:10.773Z,101192
2015-05-10T00:21:29.023Z,101203
2015-05-10T00:21:47.260Z,101197
2015-05-10T00:22:05.510Z,101189
2015-05-10T00:22:23.760Z,101197
2015-05-10T00:22:42.012Z,101197
2015-05-10T00:23:00.247Z,101215
2015-05-10T00:23:18.497Z,101203
2015-05-10T00:23:36.750Z,101209
2015-05-10T00:23:55.015Z,101200
2015-05-10T00:24:13.250Z,101206
2015-05-10T00:24:31.500Z,101197
2015-05-10T00:24:49.737Z,101209
2015-05-10T00:25:07.987Z,101209
2015-05-10T00:25:26.237Z,101215
2015-05-10T00:25:44.489Z,101212
2015-05-10T00:26:02.739Z,101209
2015-05-10T00:26:20.989Z,101215
2015-05-10T00:26:39.225Z,101215
2015-05-10T00:26:57.475Z,101220
2015-05-10T00:27:15.725Z,101215
2015-05-10T00:27:33.960Z,101217
2015-05-10T00:27:52.213Z,101215
2015-05-10T00:28:10.447Z,101217
2015-05-10T00:28:28.697Z,101212
2015-05-10T00:28:46.948Z,101215
2015-05-10T00:29:05.198Z,101217
2015-05-10T00:29:23.433Z,101215
2015-05-10T00:29:41.686Z,101217
2015-05-10T00:29:59.936Z,101215
2015-05-10T00:30:18.186Z,101217
2015-05-10T00:30:36.436Z,101217
2015-05-10T00:30:54.689Z,101215
2015-05-10T00:31:12.923Z,101215
2015-05-10T00:31:31.173Z,101215
2015-05-10T00:31:49.423Z,101226
2015-05-10T00:32:07.675Z,101212
2015-05-10T00:32:25.909Z,101215
2015-05-10T00:32:44.159Z,101220
2015-05-10T00:33:02.412Z,101212
2015-05-10T00:33:20.662Z,101217
2015-05-10T00:33:38.912Z,101226
2015-05-10T00:33:57.147Z,101220
2015-05-10T00:34:15.399Z,101209
2015-05-10T00:34:33.649Z,101215
2015-05-10T00:34:51.883Z,101223
2015-05-10T00:35:10.136Z,101226
2015-05-10T00:35:28.386Z,101223
2015-05-10T00:35:46.620Z,101229
2015-05-10T00:36:04.870Z,101217
2015-05-10T00:36:23.138Z,101226
2015-05-10T00:36:41.372Z,101223
2015-05-10T00:36:59.622Z,101217
2015-05-10T00:37:17.875Z,101226
2015-05-10T00:37:36.125Z,101226
2015-05-10T00:37:54.375Z,101215
2015-05-10T00:38:12.627Z,101217
2015-05-10T00:38:30.877Z,101217
2015-05-10T00:38:49.127Z,101220
2015-05-10T00:39:07.362Z,101232
2015-05-10T00:39:25.614Z,101232
2015-05-10T00:39:43.864Z,101226
2015-05-10T00:40:02.098Z,101217
2015-05-10T00:40:20.350Z,101229
2015-05-10T00:40:38.600Z,101237
2015-05-10T00:40:56.850Z,101226
2015-05-10T00:41:15.102Z,101226
2015-05-10T00:41:33.352Z,101229
2015-05-10T00:41:51.602Z,101229
2015-05-10T00:42:09.852Z,101229
2015-05-10T00:42:28.090Z,101235
2015-05-10T00:42:46.340Z,101232
2015-05-10T00:43:04.590Z,101232
2015-05-10T00:43:22.842Z,101226
2015-05-10T00:43:41.076Z,101226
2015-05-10T00:43:59.326Z,101232
2015-05-10T00:44:17.579Z,101237
2015-05-10T00:44:35.829Z,101232
2015-05-10T00:44:54.079Z,101217
2015-05-10T00:45:12.329Z,101226
2015-05-10T00:45:30.565Z,101237
2015-05-10T00:45:48.815Z,101226
2015-05-10T00:46:07.065Z,101232
2015-05-10T00:46:25.317Z,101235
2015-05-10T00:46:43.567Z,101240
2015-05-10T00:47:01.802Z,101232
2015-05-10T00:47:20.055Z,101232
2015-05-10T00:47:38.305Z,101240
2015-05-10T00:47:56.539Z,101235
2015-05-10T00:48:14.789Z,101243
2015-05-10T00:48:33.041Z,101226
2015-05-10T00:48:51.291Z,101243
2015-05-10T00:49:09.541Z,101235
2015-05-10T00:49:27.777Z,101232
2015-05-10T00:49:46.027Z,101243
2015-05-10T00:50:04.277Z,101237
2015-05-10T00:50:22.530Z,101246
2015-05-10T00:50:40.765Z,101232
2015-05-10T00:50:59.030Z,101229
2015-05-10T00:51:17.265Z,101243
2015-05-10T00:51:35.517Z,101237
2015-05-10T00:51:53.767Z,101240
2015-05-10T00:52:12.017Z,101243
2015-05-10T00:52:30.254Z,101237
2015-05-10T00:52:48.504Z,101243
2015-05-10T00:53:06.754Z,101237
2015-05-10T00:53:25.005Z,101235
2015-05-10T00:53:43.240Z,101243
2015-05-10T00:54:01.490Z,101232
2015-05-10T00:54:19.724Z,101246
2015-05-10T00:54:37.978Z,101243
2015-05-10T00:54:56.228Z,101249
2015-05-10T00:55:14.478Z,101249
2015-05-10T00:55:32.713Z,101240
2015-05-10T00:55:50.963Z,101255
2015-05-10T00:56:09.213Z,101235
2015-05-10T00:56:27.466Z,101243
2015-05-10T00:56:45.701Z,101240
2015-05-10T00:57:03.951Z,101235
2015-05-10T00:57:22.201Z,101243
2015-05-10T00:57:40.454Z,101252
2015-05-10T00:57:58.704Z,101255
2015-05-10T00:58:16.954Z,101246
2015-05-10T00:58:35.188Z,101243
2015-05-10T00:58:53.440Z,101243
2015-05-10T00:59:11.690Z,101240
2015-05-10T00:59:29.924Z,101240
2015-05-10T00:59:48.177Z,101237
2015-05-10T01:00:06.427Z,101237
2015-05-10T01:00:24.677Z,101243
2015-05-10T01:00:42.927Z,101237
2015-05-10T01:01:01.179Z,101240
2015-05-10T01:01:19.414Z,101243
2015-05-10T01:01:37.664Z,101237
2015-05-10T01:01:55.916Z,101237
2015-05-10T01:02:14.150Z,101237
2015-05-10T01:02:32.400Z,101229
2015-05-10T01:02:50.650Z,101240
2015-05-10T01:03:08.888Z,101246
2015-05-10T01:03:27.138Z,101243
2015-05-10T01:03:45.388Z,101240
2015-05-10T01:04:03.640Z,101229
2015-05-10T01:04:21.890Z,101240
2015-05-10T01:04:40.140Z,101252
2015-05-10T01:04:58.377Z,101243
2015-05-10T01:05:16.627Z,101240
2015-05-10T01:05:34.877Z,101246
2015-05-10T01:05:53.127Z,101232
2015-05-10T01:06:11.363Z,101243
2015-05-10T01:06:29.613Z,101243
2015-05-10T01:06:47.863Z,101249
2015-05-10T01:07:06.100Z,101240
2015-05-10T01:07:24.350Z,101255
2015-05-10T01:07:42.600Z,101252
2015-05-10T01:08:00.836Z,101249
2015-05-10T01:08:19.086Z,101237
2015-05-10T01:08:37.336Z,101246
2015-05-10T01:08:55.586Z,101243
2015-05-10T01:09:13.838Z,101246
2015-05-10T01:09:32.088Z,101243
2015-05-10T01:09:50.322Z,101234
2015-05-10T01:10:08.575Z,101249
2015-05-10T01:10:26.825Z,101249
2015-05-10T01:10:45.060Z,101237
2015-05-10T01:11:03.313Z,101240
2015-05-10T01:11:21.578Z,101249
2015-05-10T01:11:39.813Z,101237
2015-05-10T01:11:58.063Z,101249
2015-05-10T01:12:16.314Z,101237
2015-05-10T01:12:34.548Z,101243
2015-05-10T01:12:52.798Z,101240
2015-05-10T01:13:11.051Z,101249
2015-05-10T01:13:29.301Z,101246
2015-05-10T01:13:47.536Z,101252
2015-05-10T01:14:05.789Z,101243
2015-05-10T01:14:24.039Z,101246
2015-05-10T01:14:42.273Z,101243
2015-05-10T01:15:00.523Z,101243
2015-05-10T01:15:18.759Z,101240
2015-05-10T01:15:37.009Z,101243
2015-05-10T01:15:55.259Z,101249
2015-05-10T01:16:13.512Z,101252
2015-05-10T01:16:31.747Z,101243
2015-05-10T01:16:49.997Z,101249
2015-05-10T01:17:08.249Z,101240
2015-05-10T01:17:26.483Z,101243
2015-05-10T01:17:44.733Z,101243
2015-05-10T01:18:02.983Z,101246
2015-05-10T01:18:21.235Z,101257
2015-05-10T01:18:39.485Z,101249
2015-05-10T01:18:57.719Z,101249
2015-05-10T01:19:15.969Z,101243
2015-05-10T01:19:34.222Z,101240
2015-05-10T01:19:52.457Z,101246
2015-05-10T01:20:10.707Z,101249
2015-05-10T01:20:28.959Z,101249
2015-05-10T01:20:47.209Z,101260
2015-05-10T01:21:05.443Z,101255
2015-05-10T01:21:23.693Z,101243
2015-05-10T01:21:41.946Z,101257
2015-05-10T01:22:00.181Z,101257
2015-05-10T01:22:18.431Z,101240
2015-05-10T01:22:36.682Z,101252
2015-05-10T01:22:54.916Z,101252
2015-05-10T01:23:13.166Z,101260
2015-05-10T01:23:31.419Z,101255
2015-05-10T01:23:49.653Z,101260
2015-05-10T01:24:07.919Z,101255
2015-05-10T01:24:26.153Z,101257
2015-05-10T01:24:44.405Z,101255
2015-05-10T01:25:02.655Z,101260
2015-05-10T01:25:20.905Z,101257
2015-05-10T01:25:39.142Z,101254
2015-05-10T01:25:57.407Z,101254
2015-05-10T01:26:15.657Z,101257
2015-05-10T01:26:33.895Z,101266
2015-05-10T01:26:52.145Z,101266
2015-05-10T01:27:10.395Z,101263
2015-05-10T01:27:28.629Z,101263
2015-05-10T01:27:46.882Z,101263
2015-05-10T01:28:05.132Z,101266
2015-05-10T01:28:23.382Z,101263
2015-05-10T01:28:41.618Z,101263
2015-05-10T01:28:59.868Z,101257
2015-05-10T01:29:18.118Z,101257
2015-05-10T01:29:36.370Z,101263
2015-05-10T01:29:54.605Z,101249
2015-05-10T01:30:12.855Z,101266
2015-05-10T01:30:31.105Z,101269
2015-05-10T01:30:49.357Z,101263
2015-05-10T01:31:07.607Z,101260
2015-05-10T01:31:25.857Z,101252
2015-05-10T01:31:44.110Z,101263
2015-05-10T01:32:02.360Z,101257
2015-05-10T01:32:20.610Z,101257
2015-05-10T01:32:38.846Z,101252
2015-05-10T01:32:57.096Z,101254
2015-05-10T01:33:15.346Z,101257
2015-05-10T01:33:33.581Z,101249
2015-05-10T01:33:51.834Z,101263
2015-05-10T01:34:10.084Z,101254
2015-05-10T01:34:28.318Z,101257
2015-05-10T01:34:46.570Z,101263
2015-05-10T01:35:04.820Z,101263
2015-05-10T01:35:23.070Z,101269
2015-05-10T01:35:41.307Z,101254
2015-05-10T01:35:59.557Z,101257
2015-05-10T01:36:17.807Z,101266
2015-05-10T01:36:36.057Z,101257
2015-05-10T01:36:54.294Z,101252
2015-05-10T01:37:12.544Z,101266
2015-05-10T01:37:30.794Z,101252
2015-05-10T01:37:49.044Z,101263
2015-05-10T01:38:07.281Z,101263
2015-05-10T01:38:25.531Z,101269
2015-05-10T01:38:43.781Z,101246
2015-05-10T01:39:02.033Z,101263
2015-05-10T01:39:20.283Z,101263
2015-05-10T01:39:38.533Z,101260
2015-05-10T01:39:56.783Z,101263
2015-05-10T01:40:15.035Z,101263
2015-05-10T01:40:33.269Z,101257
2015-05-10T01:40:51.519Z,101254
2015-05-10T01:41:09.772Z,101263
2015-05-10T01:41:28.022Z,101260
2015-05-10T01:41:46.257Z,101257
2015-05-10T01:42:04.507Z,101269
2015-05-10T01:42:22.743Z,101263
2015-05-10T01:42:40.993Z,101263
2015-05-10T01:42:59.243Z,101263
2015-05-10T01:43:17.496Z,101260
2015-05-10T01:43:35.731Z,101266
2015-05-10T01:43:53.981Z,101263
2015-05-10T01:44:12.232Z,101263
2015-05-10T01:44:30.482Z,101263
2015-05-10T01:44:48.716Z,101269
2015-05-10T01:45:06.966Z,101254
2015-05-10T01:45:25.219Z,101257
2015-05-10T01:45:43.469Z,101263
2015-05-10T01:46:01.703Z,101263
2015-05-10T01:46:19.955Z,101257
2015-05-10T01:46:38.205Z,101260
2015-05-10T01:46:56.455Z,101266
2015-05-10T01:47:14.708Z,101274
2015-05-10T01:47:32.943Z,101274
2015-05-10T01:47:51.193Z,101266
2015-05-10T01:48:09.427Z,101260
2015-05-10T01:48:27.679Z,101272
2015-05-10T01:48:45.913Z,101263
2015-05-10T01:49:04.163Z,101269
2015-05-10T01:49:22.416Z,101266
2015-05-10T01:49:40.666Z,101263
2015-05-10T01:49:58.916Z,101266
2015-05-10T01:50:17.153Z,101272
2015-05-10T01:50:35.403Z,101266
2015-05-10T01:50:53.653Z,101269
2015-05-10T01:51:11.887Z,101269
2015-05-10T01:51:30.139Z,101269
2015-05-10T01:51:48.389Z,101263
2015-05-10T01:52:06.624Z,101274
2015-05-10T01:52:24.876Z,101266
2015-05-10T01:52:43.126Z,101274
2015-05-10T01:53:01.376Z,101272
2015-05-10T01:53:19.629Z,101272
2015-05-10T01:53:37.879Z,101277
2015-05-10T01:53:56.113Z,101272
2015-05-10T01:54:14.363Z,101272
2015-05-10T01:54:32.615Z,101272
2015-05-10T01:54:50.865Z,101263
2015-05-10T01:55:09.099Z,101269
2015-05-10T01:55:27.352Z,101266
2015-05-10T01:55:45.602Z,101272
2015-05-10T01:56:03.837Z,101266
2015-05-10T01:56:22.089Z,101277
2015-05-10T01:56:40.339Z,101254
2015-05-10T01:56:58.589Z,101269
2015-05-10T01:57:16.839Z,101269
2015-05-10T01:57:35.075Z,101260
2015-05-10T01:57:53.325Z,101269
2015-05-10T01:58:11.606Z,101272
2015-05-10T01:58:29.827Z,101272
2015-05-10T01:58:48.077Z,101269
2015-05-10T01:59:06.327Z,101277
2015-05-10T01:59:24.564Z,101266
2015-05-10T01:59:42.814Z,101269
2015-05-10T02:00:01.064Z,101266
2015-05-10T02:00:19.314Z,101272
2015-05-10T02:00:37.551Z,101266
2015-05-10T02:00:55.801Z,101272
2015-05-10T02:01:14.051Z,101266
2015-05-10T02:01:32.285Z,101272
2015-05-10T02:01:50.538Z,101277
2015-05-10T02:02:08.788Z,101266
2015-05-10T02:02:27.023Z,101274
2015-05-10T02:02:45.275Z,101272
2015-05-10T02:03:03.525Z,101272
2015-05-10T02:03:21.759Z,101274
2015-05-10T02:03:40.025Z,101277
2015-05-10T02:03:58.262Z,101274
2015-05-10T02:04:16.512Z,101283
2015-05-10T02:04:34.762Z,101274
2015-05-10T02:04:53.014Z,101274
2015-05-10T02:05:11.248Z,101280
2015-05-10T02:05:29.498Z,101274
2015-05-10T02:05:47.748Z,101274
2015-05-10T02:06:06.000Z,101274
2015-05-10T02:06:24.250Z,101266
2015-05-10T02:06:42.485Z,101280
2015-05-10T02:07:00.738Z,101280
2015-05-10T02:07:18.988Z,101274
2015-05-10T02:07:37.238Z,101286
2015-05-10T02:07:55.505Z,101280
2015-05-10T02:08:13.724Z,101283
2015-05-10T02:08:31.974Z,101286
2015-05-10T02:08:50.224Z,101289
2015-05-10T02:09:08.476Z,101274
2015-05-10T02:09:26.710Z,101280
2015-05-10T02:09:44.945Z,101280
2015-05-10T02:10:03.198Z,101283
2015-05-10T02:10:21.448Z,101280
2015-05-10T02:10:39.698Z,101277
2015-05-10T02:10:57.951Z,101280
2015-05-10T02:11:16.201Z,101286
2015-05-10T02:11:34.451Z,101274
2015-05-10T02:11:52.685Z,101277
2015-05-10T02:12:10.937Z,101280
2015-05-10T02:12:29.187Z,101274
2015-05-10T02:12:47.422Z,101280
2015-05-10T02:13:05.674Z,101283
2015-05-10T02:13:23.939Z,101274
2015-05-10T02:13:42.189Z,101274
2015-05-10T02:14:00.426Z,101286
2015-05-10T02:14:18.676Z,101289
2015-05-10T02:14:36.926Z,101286
2015-05-10T02:14:55.160Z,101274
2015-05-10T02:15:13.413Z,101280
2015-05-10T02:15:31.663Z,101271
2015-05-10T02:15:49.913Z,101277
2015-05-10T02:16:08.149Z,101283
2015-05-10T02:16:26.399Z,101280
2015-05-10T02:16:44.634Z,101280
2015-05-10T02:17:02.886Z,101277
2015-05-10T02:17:21.136Z,101280
2015-05-10T02:17:39.370Z,101280
2015-05-10T02:17:57.620Z,101277
2015-05-10T02:18:15.872Z,101274
2015-05-10T02:18:34.122Z,101280
2015-05-10T02:18:52.356Z,101286
2015-05-10T02:19:10.610Z,101280
2015-05-10T02:19:28.860Z,101286
2015-05-10T02:19:47.110Z,101280
2015-05-10T02:20:05.376Z,101280
2015-05-10T02:20:23.612Z,101280
2015-05-10T02:20:41.862Z,101286
2015-05-10T02:21:00.112Z,101294
2015-05-10T02:21:18.349Z,101280
2015-05-10T02:21:36.599Z,101280
2015-05-10T02:21:54.849Z,101286
2015-05-10T02:22:13.099Z,101280
2015-05-10T02:22:31.336Z,101291
2015-05-10T02:22:49.586Z,101271
2015-05-10T02:23:07.836Z,101280
2015-05-10T02:23:26.088Z,101283
2015-05-10T02:23:44.323Z,101271
2015-05-10T02:24:02.573Z,101280
2015-05-10T02:24:20.825Z,101277
2015-05-10T02:24:39.075Z,101280
2015-05-10T02:24:57.309Z,101294
2015-05-10T02:25:15.559Z,101283
2015-05-10T02:25:33.796Z,101271
2015-05-10T02:25:52.046Z,101280
2015-05-10T02:26:10.296Z,101283
2015-05-10T02:26:28.548Z,101283
2015-05-10T02:26:46.783Z,101289
2015-05-10T02:27:05.033Z,101271
2015-05-10T02:27:23.285Z,101274
2015-05-10T02:27:41.535Z,101286
2015-05-10T02:27:59.785Z,101277
2015-05-10T02:28:18.019Z,101277
2015-05-10T02:28:36.272Z,101277
2015-05-10T02:28:54.506Z,101280
2015-05-10T02:29:12.756Z,101274
2015-05-10T02:29:31.008Z,101280
2015-05-10T02:29:49.243Z,101277
2015-05-10T02:30:07.493Z,101289
2015-05-10T02:30:25.745Z,101271
2015-05-10T02:30:43.995Z,101280
2015-05-10T02:31:02.229Z,101277
2015-05-10T02:31:20.479Z,101277
2015-05-10T02:31:38.732Z,101283
2015-05-10T02:31:56.982Z,101277
2015-05-10T02:32:15.217Z,101277
2015-05-10T02:32:33.469Z,101283
2015-05-10T02:32:51.719Z,101280
2015-05-10T02:33:09.953Z,101271
2015-05-10T02:33:28.205Z,101271
2015-05-10T02:33:46.455Z,101274
2015-05-10T02:34:04.689Z,101291
2015-05-10T02:34:22.939Z,101280
2015-05-10T02:34:41.191Z,101277
2015-05-10T02:34:59.441Z,101277
2015-05-10T02:35:17.676Z,101280
2015-05-10T02:35:35.929Z,101277
2015-05-10T02:35:54.163Z,101277
2015-05-10T02:36:12.413Z,101286
2015-05-10T02:36:30.649Z,101274
2015-05-10T02:36:48.899Z,101274
2015-05-10T02:37:07.149Z,101277
2015-05-10T02:37:25.399Z,101280
2015-05-10T02:37:43.652Z,101274
2015-05-10T02:38:01.887Z,101280
2015-05-10T02:38:20.137Z,101286
2015-05-10T02:38:38.389Z,101292
2015-05-10T02:38:56.639Z,101283
2015-05-10T02:39:14.873Z,101280
2015-05-10T02:39:33.123Z,101280
2015-05-10T02:39:51.376Z,101277
2015-05-10T02:40:09.626Z,101283
2015-05-10T02:40:27.876Z,101286
2015-05-10T02:40:46.128Z,101283
2015-05-10T02:41:04.378Z,101280
2015-05-10T02:41:22.628Z,101289
2015-05-10T02:41:40.863Z,101289
2015-05-10T02:41:59.115Z,101294
2015-05-10T02:42:17.349Z,101286
2015-05-10T02:42:35.599Z,101280
2015-05-10T02:42:53.867Z,101283
2015-05-10T02:43:12.101Z,101283
2015-05-10T02:43:30.351Z,101289
2015-05-10T02:43:48.585Z,101286
2015-05-10T02:44:06.839Z,101286
2015-05-10T02:44:25.074Z,101286
2015-05-10T02:44:43.324Z,101286
2015-05-10T02:45:01.576Z,101286
2015-05-10T02:45:19.826Z,101277
2015-05-10T02:45:38.060Z,101291
2015-05-10T02:45:56.312Z,101286
2015-05-10T02:46:14.562Z,101294
2015-05-10T02:46:32.796Z,101291
2015-05-10T02:46:51.046Z,101291
2015-05-10T02:47:09.298Z,101283
2015-05-10T02:47:27.548Z,101289
2015-05-10T02:47:45.783Z,101294
2015-05-10T02:48:04.035Z,101286
2015-05-10T02:48:22.285Z,101286
2015-05-10T02:48:40.535Z,101283
2015-05-10T02:48:58.772Z,101289
2015-05-10T02:49:17.022Z,101294
2015-05-10T02:49:35.272Z,101289
2015-05-10T02:49:53.522Z,101297
2015-05-10T02:50:11.759Z,101271
2015-05-10T02:50:30.009Z,101300
2015-05-10T02:50:48.259Z,101291
2015-05-10T02:51:06.512Z,101291
2015-05-10T02:51:24.746Z,101294
2015-05-10T02:51:42.996Z,101283
2015-05-10T02:52:01.232Z,101294
2015-05-10T02:52:19.482Z,101294
2015-05-10T02:52:37.732Z,101291
2015-05-10T02:52:55.982Z,101291
2015-05-10T02:53:14.219Z,101300
2015-05-10T02:53:32.469Z,101286
2015-05-10T02:53:50.719Z,101289
2015-05-10T02:54:08.971Z,101294
2015-05-10T02:54:27.205Z,101297
2015-05-10T02:54:45.455Z,101291
2015-05-10T02:55:03.708Z,101294
2015-05-10T02:55:21.942Z,101297
2015-05-10T02:55:40.192Z,101297
2015-05-10T02:55:58.442Z,101297
2015-05-10T02:56:16.694Z,101297
2015-05-10T02:56:34.929Z,101294
2015-05-10T02:56:53.179Z,101297
2015-05-10T02:57:11.259Z,101291
2015-05-10T02:57:29.509Z,101303
2015-05-10T02:57:47.759Z,101303
2015-05-10T02:58:05.996Z,101297
2015-05-10T02:58:24.246Z,101297
2015-05-10T02:58:42.496Z,101300
2015-05-10T02:59:00.731Z,101306
2015-05-10T02:59:18.984Z,101294
2015-05-10T02:59:37.234Z,101297
2015-05-10T02:59:55.484Z,101294
2015-05-10T03:00:13.734Z,101291
2015-05-10T03:00:31.986Z,101297
2015-05-10T03:00:50.236Z,101306
2015-05-10T03:01:08.470Z,101294
2015-05-10T03:01:26.723Z,101291
2015-05-10T03:01:44.973Z,101297
2015-05-10T03:02:03.223Z,101297
2015-05-10T03:02:21.473Z,101297
2015-05-10T03:02:39.725Z,101286
2015-05-10T03:02:57.959Z,101294
2015-05-10T03:03:16.209Z,101294
2015-05-10T03:03:34.461Z,101291
2015-05-10T03:03:52.711Z,101277
2015-05-10T03:04:10.961Z,101283
2015-05-10T03:04:29.198Z,101283
2015-05-10T03:04:47.448Z,101294
2015-05-10T03:05:05.698Z,101291
2015-05-10T03:05:23.948Z,101294
2015-05-10T03:05:42.185Z,101289
2015-05-10T03:06:00.435Z,101289
2015-05-10T03:06:18.685Z,101286
2015-05-10T03:06:36.938Z,101286
2015-05-10T03:06:55.188Z,101306
2015-05-10T03:07:13.438Z,101297
2015-05-10T03:07:31.690Z,101294
2015-05-10T03:07:49.940Z,101303
2015-05-10T03:08:08.190Z,101306
2015-05-10T03:08:26.284Z,101300
2015-05-10T03:08:44.536Z,101289
2015-05-10T03:09:02.786Z,101300
2015-05-10T03:09:21.020Z,101306
2015-05-10T03:09:39.273Z,101291
2015-05-10T03:09:57.523Z,101306
2015-05-10T03:10:15.773Z,101297
2015-05-10T03:10:34.010Z,101297
2015-05-10T03:10:52.260Z,101289
2015-05-10T03:11:10.510Z,101300
2015-05-10T03:11:28.760Z,101294
2015-05-10T03:11:47.012Z,101297
2015-05-10T03:12:05.262Z,101291
2015-05-10T03:12:23.496Z,101294
2015-05-10T03:12:41.748Z,101294
2015-05-10T03:12:59.998Z,101300
2015-05-10T03:13:18.248Z,101306
2015-05-10T03:13:36.501Z,101303
2015-05-10T03:13:54.751Z,101300
2015-05-10T03:14:13.001Z,101306
2015-05-10T03:14:31.237Z,101303
2015-05-10T03:14:49.487Z,101300
2015-05-10T03:15:07.737Z,101297
2015-05-10T03:15:25.987Z,101300
2015-05-10T03:15:44.240Z,101303
2015-05-10T03:16:02.475Z,101300
2015-05-10T03:16:20.725Z,101300
2015-05-10T03:16:38.977Z,101306
2015-05-10T03:16:57.211Z,101306
2015-05-10T03:17:15.461Z,101306
2015-05-10T03:17:33.711Z,101300
2015-05-10T03:17:51.963Z,101303
2015-05-10T03:18:10.213Z,101306
2015-05-10T03:18:28.463Z,101313
2015-05-10T03:18:46.701Z,101306
2015-05-10T03:19:04.951Z,101308
2015-05-10T03:19:23.201Z,101308
2015-05-10T03:19:41.435Z,101308
2015-05-10T03:19:59.687Z,101308
2015-05-10T03:20:17.937Z,101303
2015-05-10T03:20:36.187Z,101303
2015-05-10T03:20:54.424Z,101308
2015-05-10T03:21:12.674Z,101303
2015-05-10T03:21:30.924Z,101300
2015-05-10T03:21:49.174Z,101303
2015-05-10T03:22:07.426Z,101308
2015-05-10T03:22:25.676Z,101308
2015-05-10T03:22:43.926Z,101311
2015-05-10T03:23:02.163Z,101311
2015-05-10T03:23:20.413Z,101308
2015-05-10T03:23:38.663Z,101311
2015-05-10T03:23:56.913Z,101306
2015-05-10T03:24:15.150Z,101306
2015-05-10T03:24:33.400Z,101311
2015-05-10T03:24:51.650Z,101316
2015-05-10T03:25:09.902Z,101308
2015-05-10T03:25:28.152Z,101308
2015-05-10T03:25:46.402Z,101308
2015-05-10T03:26:04.654Z,101311
2015-05-10T03:26:22.904Z,101300
2015-05-10T03:26:41.138Z,101300
2015-05-10T03:26:59.388Z,101300
2015-05-10T03:27:17.640Z,101308
2015-05-10T03:27:35.875Z,101303
2015-05-10T03:27:54.125Z,101306
2015-05-10T03:28:12.378Z,101306
2015-05-10T03:28:30.628Z,101308
2015-05-10T03:28:48.878Z,101303
2015-05-10T03:29:07.115Z,101311
2015-05-10T03:29:25.381Z,101303
2015-05-10T03:29:43.615Z,101311
2015-05-10T03:30:01.865Z,101311
2015-05-10T03:30:20.117Z,101308
2015-05-10T03:30:38.367Z,101313
2015-05-10T03:30:56.617Z,101311
2015-05-10T03:31:14.870Z,101308
2015-05-10T03:31:33.120Z,101319
2015-05-10T03:31:51.370Z,101308
2015-05-10T03:32:09.606Z,101303
2015-05-10T03:32:27.856Z,101319
2015-05-10T03:32:46.106Z,101311
2015-05-10T03:33:04.356Z,101310
2015-05-10T03:33:22.609Z,101316
2015-05-10T03:33:40.843Z,101306
2015-05-10T03:33:59.093Z,101313
2015-05-10T03:34:17.345Z,101313
2015-05-10T03:34:35.595Z,101310
2015-05-10T03:34:53.845Z,101316
2015-05-10T03:35:12.081Z,101322
2015-05-10T03:35:30.331Z,101316
2015-05-10T03:35:48.581Z,101316
2015-05-10T03:36:06.831Z,101319
2015-05-10T03:36:25.084Z,101313
2015-05-10T03:36:43.334Z,101313
2015-05-10T03:37:01.584Z,101319
2015-05-10T03:37:19.836Z,101316
2015-05-10T03:37:38.086Z,101319
2015-05-10T03:37:56.336Z,101313
2015-05-10T03:38:14.589Z,101310
2015-05-10T03:38:32.824Z,101310
2015-05-10T03:38:51.074Z,101319
2015-05-10T03:39:09.324Z,101316
2015-05-10T03:39:27.576Z,101319
2015-05-10T03:39:45.810Z,101319
2015-05-10T03:40:04.060Z,101316
2015-05-10T03:40:22.312Z,101322
2015-05-10T03:40:40.562Z,101308
2015-05-10T03:40:58.812Z,101313
2015-05-10T03:41:17.062Z,101313
2015-05-10T03:41:35.315Z,101310
2015-05-10T03:41:53.549Z,101308
2015-05-10T03:42:11.799Z,101308
2015-05-10T03:42:30.052Z,101316
2015-05-10T03:42:48.302Z,101310
2015-05-10T03:43:06.552Z,101309
2015-05-10T03:43:24.802Z,101306
2015-05-10T03:43:43.054Z,101304
2015-05-10T03:44:01.304Z,101312
2015-05-10T03:44:19.539Z,101320
2015-05-10T03:44:37.791Z,101311
2015-05-10T03:44:56.041Z,101323
2015-05-10T03:45:14.306Z,101320
2015-05-10T03:45:32.541Z,101322
2015-05-10T03:45:50.794Z,101316
2015-05-10T03:46:09.028Z,101316
2015-05-10T03:46:27.278Z,101322
2015-05-10T03:46:45.530Z,101307
2015-05-10T03:47:03.780Z,101316
2015-05-10T03:47:22.030Z,101321
2015-05-10T03:47:40.267Z,101321